Time;durP1;ratioP1;P1;durP2;ratioP2;P2;SDS_P1;SDS_P2;PMS_P1;PMS_P2;Temp;Humidity;BMP_temperature;BMP_pressure;BME280_temperature;BME280_humidity;BME280_pressure;Samples;Min_cycle;Max_cycle;Signal;HPM_P1;HPM_P2
2024/03/02 00:02:14;;;;;;;0.50;0.00;;;8.60;99.90;;;;;;5037758;28;20127;-81
2024/03/02 00:04:39;;;;;;;0.88;0.00;;;8.60;99.90;;;;;;5038569;28;20025;-81
2024/03/02 00:07:07;;;;;;;1.70;0.00;;;8.60;99.90;;;;;;5039451;28;20036;-77
2024/03/02 00:09:33;;;;;;;0.38;0.00;;;8.60;99.90;;;;;;5035148;28;20030;-76
2024/03/02 00:12:00;;;;;;;1.05;0.00;;;8.60;99.90;;;;;;5033101;28;20022;-77
2024/03/02 00:14:29;;;;;;;0.60;0.00;;;8.60;99.90;;;;;;5034108;28;20022;-75
2024/03/02 00:16:56;;;;;;;1.00;0.00;;;8.60;99.90;;;;;;5034235;28;20067;-77
2024/03/02 00:19:22;;;;;;;1.10;0.00;;;8.60;99.90;;;;;;5033346;28;20482;-75
2024/03/02 00:21:47;;;;;;;0.15;0.00;;;8.60;99.90;;;;;;5032899;28;20022;-76
2024/03/02 00:24:32;;;;;;;0.47;0.00;;;8.60;99.90;;;;;;5034377;28;20029;-77
2024/03/02 00:26:58;;;;;;;0.13;0.00;;;8.50;99.90;;;;;;5033043;28;20025;-77
2024/03/02 00:29:24;;;;;;;0.22;0.00;;;8.40;99.90;;;;;;5033283;28;20063;-77
2024/03/02 00:31:50;;;;;;;0.77;0.00;;;8.20;99.90;;;;;;5034177;28;20100;-76
2024/03/02 00:34:17;;;;;;;0.00;0.00;;;8.10;99.90;;;;;;5034086;28;20060;-75
2024/03/02 00:36:43;;;;;;;0.00;0.00;;;8.00;99.90;;;;;;5034306;28;20500;-76
2024/03/02 00:39:15;;;;;;;0.00;0.00;;;7.90;99.90;;;;;;5034666;28;20075;-76
2024/03/02 00:41:44;;;;;;;0.03;0.00;;;7.80;99.90;;;;;;5032168;28;20029;-77
2024/03/02 00:44:12;;;;;;;0.00;0.00;;;7.60;99.90;;;;;;5033773;28;20022;-77
2024/03/02 00:46:40;;;;;;;0.95;0.70;;;7.60;99.90;;;;;;5033920;28;20029;-77
2024/03/02 00:49:12;;;;;;;0.10;0.00;;;7.60;99.90;;;;;;5032582;28;20025;-77
2024/03/02 00:51:39;;;;;;;0.00;0.00;;;7.60;99.90;;;;;;5032441;28;20025;-76
2024/03/02 00:54:07;;;;;;;0.00;0.00;;;7.60;99.90;;;;;;5034208;28;20033;-75
2024/03/02 00:56:34;;;;;;;0.00;0.00;;;7.60;99.90;;;;;;5033701;28;20029;-76
2024/03/02 00:59:00;;;;;;;0.05;0.00;;;7.50;99.90;;;;;;5032282;28;20032;-76
2024/03/02 01:01:27;;;;;;;0.00;0.00;;;7.50;99.90;;;;;;5033379;28;20420;-76
2024/03/02 01:03:53;;;;;;;0.00;0.00;;;7.50;99.90;;;;;;5033088;28;20029;-77
2024/03/02 01:06:19;;;;;;;0.00;0.00;;;7.40;99.90;;;;;;5034152;28;20448;-76
2024/03/02 01:08:46;;;;;;;0.13;0.03;;;7.40;99.90;;;;;;5034281;28;20108;-76
2024/03/02 01:11:11;;;;;;;1.35;0.00;;;7.30;99.90;;;;;;5032450;28;20026;-77
2024/03/02 01:13:37;;;;;;;0.00;0.00;;;7.30;99.90;;;;;;5033871;28;20033;-76
2024/03/02 01:16:03;;;;;;;0.22;0.00;;;7.30;99.90;;;;;;5032109;28;20063;-76
2024/03/02 01:18:30;;;;;;;0.00;0.00;;;7.30;99.90;;;;;;5036758;28;20022;-79
2024/03/02 01:20:56;;;;;;;1.98;0.00;;;7.20;99.90;;;;;;5034543;28;20028;-79
2024/03/02 01:23:25;;;;;;;0.10;0.00;;;7.30;99.90;;;;;;5035501;28;20061;-79
2024/03/02 01:25:52;;;;;;;0.10;0.00;;;7.20;99.90;;;;;;5036047;28;20029;-80
2024/03/02 01:28:18;;;;;;;0.00;0.00;;;7.20;99.90;;;;;;5037133;28;20033;-80
2024/03/02 01:30:44;;;;;;;0.00;0.00;;;7.20;99.90;;;;;;5036574;28;20044;-80
2024/03/02 01:33:10;;;;;;;0.00;0.00;;;7.20;99.90;;;;;;5036820;28;20021;-80
2024/03/02 01:35:37;;;;;;;0.35;0.00;;;7.20;99.90;;;;;;5033871;28;20028;-79
2024/03/02 01:38:03;;;;;;;1.08;0.00;;;7.20;99.90;;;;;;5035547;28;20018;-80
2024/03/02 01:40:29;;;;;;;1.98;0.00;;;7.20;99.90;;;;;;5035765;28;20473;-78
2024/03/02 01:42:55;;;;;;;0.00;0.00;;;7.20;99.90;;;;;;5034817;28;20037;-79
2024/03/02 01:45:21;;;;;;;0.15;0.00;;;7.10;99.90;;;;;;5036530;28;20108;-79
2024/03/02 01:47:47;;;;;;;0.00;0.00;;;7.20;99.90;;;;;;5035874;28;20061;-79
2024/03/02 01:50:13;;;;;;;0.00;0.00;;;7.10;99.90;;;;;;5036441;28;20022;-79
2024/03/02 01:52:39;;;;;;;0.00;0.00;;;8.60;99.90;;;;;;5036768;28;20040;-79
2024/03/02 01:55:08;;;;;;;0.00;0.00;;;7.10;99.90;;;;;;5039942;28;20021;-79
2024/03/02 01:57:34;;;;;;;;;;;7.10;99.90;;;;;;5041633;28;20060;-79
2024/03/02 02:00:00;;;;;;;0.00;0.00;;;7.00;99.90;;;;;;5038867;28;19949;-79
2024/03/02 02:02:26;;;;;;;0.00;0.00;;;7.10;99.90;;;;;;5040069;28;20048;-79
2024/03/02 02:04:52;;;;;;;0.00;0.00;;;7.10;99.90;;;;;;5041499;28;20025;-79
2024/03/02 02:07:18;;;;;;;0.15;0.10;;;7.00;99.90;;;;;;5040724;28;20377;-79
2024/03/02 02:09:44;;;;;;;0.17;0.00;;;7.00;99.90;;;;;;5040432;28;20057;-79
2024/03/02 02:12:10;;;;;;;0.00;0.00;;;7.00;99.90;;;;;;5037958;28;20018;-79
2024/03/02 02:14:36;;;;;;;0.00;0.00;;;7.00;99.90;;;;;;5040853;28;20033;-79
2024/03/02 02:17:02;;;;;;;0.10;0.00;;;7.00;99.90;;;;;;5039955;28;20071;-80
2024/03/02 02:19:28;;;;;;;1.55;0.00;;;6.90;99.90;;;;;;5036948;28;20473;-79
2024/03/02 02:21:54;;;;;;;0.00;0.00;;;6.90;99.90;;;;;;5039899;28;20028;-76
2024/03/02 02:24:20;;;;;;;0.00;0.00;;;7.00;99.90;;;;;;5037152;28;20461;-77
2024/03/02 02:26:45;;;;;;;0.00;0.00;;;6.90;99.90;;;;;;5035764;28;20060;-76
2024/03/02 02:29:11;;;;;;;0.00;0.00;;;6.90;99.90;;;;;;5036379;28;20028;-76
2024/03/02 02:31:41;;;;;;;0.00;0.00;;;6.80;99.90;;;;;;5037224;28;20033;-76
2024/03/02 02:34:07;;;;;;;0.00;0.00;;;6.80;99.90;;;;;;5035598;28;20022;-77
2024/03/02 02:36:34;;;;;;;0.47;0.00;;;6.80;99.90;;;;;;5036931;28;20025;-76
2024/03/02 02:39:03;;;;;;;0.00;0.00;;;6.80;99.90;;;;;;5037939;28;20021;-76
2024/03/02 02:41:29;;;;;;;0.00;0.00;;;6.80;99.90;;;;;;5036406;28;20055;-75
2024/03/02 02:43:55;;;;;;;0.00;0.00;;;6.80;99.90;;;;;;5036142;28;20029;-75
2024/03/02 02:46:21;;;;;;;0.10;0.00;;;6.80;99.90;;;;;;5035646;28;20021;-76
2024/03/02 02:48:47;;;;;;;0.00;0.00;;;6.70;99.90;;;;;;5034737;28;20057;-77
2024/03/02 02:51:13;;;;;;;0.00;0.00;;;6.70;99.90;;;;;;5034896;28;20113;-76
2024/03/02 02:53:40;;;;;;;1.88;0.00;;;6.70;99.90;;;;;;5036582;28;20025;-78
2024/03/02 02:56:06;;;;;;;0.10;0.00;;;6.70;99.90;;;;;;5035240;28;20057;-75
2024/03/02 02:58:32;;;;;;;0.10;0.00;;;6.80;99.90;;;;;;5035571;28;20028;-76
2024/03/02 03:00:58;;;;;;;0.55;0.00;;;6.80;99.90;;;;;;5036224;28;20034;-77
2024/03/02 03:03:23;;;;;;;1.75;0.00;;;6.70;99.90;;;;;;5036330;28;20029;-76
2024/03/02 03:05:49;;;;;;;0.00;0.00;;;6.70;99.90;;;;;;5034851;28;20112;-75
2024/03/02 03:08:15;;;;;;;0.00;0.00;;;6.80;99.90;;;;;;5035864;28;20021;-75
2024/03/02 03:10:41;;;;;;;0.00;0.00;;;6.70;99.90;;;;;;5035494;28;20068;-76
2024/03/02 03:13:10;;;;;;;0.00;0.00;;;6.70;99.90;;;;;;5035110;28;20022;-76
2024/03/02 03:15:36;;;;;;;1.35;0.00;;;6.70;99.90;;;;;;5036617;28;20388;-77
2024/03/02 03:18:07;;;;;;;0.00;0.00;;;6.70;99.90;;;;;;5034680;28;20018;-76
2024/03/02 03:20:33;;;;;;;2.70;0.00;;;6.70;99.90;;;;;;5036318;28;20025;-76
2024/03/02 03:22:59;;;;;;;0.00;0.00;;;6.70;99.90;;;;;;5036327;28;20018;-75
2024/03/02 03:25:25;;;;;;;0.00;0.00;;;6.70;99.90;;;;;;5034363;28;20022;-76
2024/03/02 03:27:52;;;;;;;0.00;0.00;;;6.60;99.90;;;;;;5034348;28;20124;-77
2024/03/02 03:30:18;;;;;;;0.00;0.00;;;6.60;99.90;;;;;;5036082;28;20509;-76
2024/03/02 03:32:44;;;;;;;1.13;0.20;;;6.60;99.90;;;;;;5036042;28;20072;-76
2024/03/02 03:35:09;;;;;;;0.00;0.00;;;6.60;99.90;;;;;;5035151;28;20021;-76
2024/03/02 03:37:36;;;;;;;0.38;0.00;;;6.60;99.90;;;;;;5035546;28;20052;-76
2024/03/02 03:40:11;;;;;;;1.65;0.00;;;6.60;99.90;;;;;;5035383;28;20018;-77
2024/03/02 03:42:37;;;;;;;0.65;0.00;;;6.60;99.90;;;;;;5035271;28;20560;-76
2024/03/02 03:45:04;;;;;;;0.00;0.00;;;6.60;99.90;;;;;;5035655;28;20096;-76
2024/03/02 03:47:31;;;;;;;0.20;0.00;;;6.70;99.90;;;;;;5035700;28;20033;-76
2024/03/02 03:49:57;;;;;;;0.00;0.00;;;6.70;99.90;;;;;;5033743;28;20408;-77
2024/03/02 03:52:23;;;;;;;0.10;0.00;;;6.60;99.90;;;;;;5034993;28;20017;-76
2024/03/02 03:54:49;;;;;;;0.52;0.00;;;6.70;99.90;;;;;;5034496;28;20083;-75
2024/03/02 03:57:14;;;;;;;0.03;0.00;;;6.80;99.90;;;;;;5036407;28;20485;-76
2024/03/02 03:59:40;;;;;;;0.00;0.00;;;6.80;99.90;;;;;;5034162;28;20036;-76
2024/03/02 04:02:06;;;;;;;0.10;0.00;;;6.70;99.90;;;;;;5034272;28;20440;-76
2024/03/02 04:04:31;;;;;;;0.57;0.22;;;6.80;99.90;;;;;;5036112;28;20013;-76
2024/03/02 04:06:57;;;;;;;1.27;0.00;;;6.80;99.90;;;;;;5035063;28;20108;-76
2024/03/02 04:09:23;;;;;;;0.35;0.00;;;6.80;99.90;;;;;;5034589;28;20018;-76
2024/03/02 04:11:48;;;;;;;1.10;0.10;;;6.90;99.90;;;;;;5034035;28;20017;-77
2024/03/02 04:14:14;;;;;;;1.15;0.00;;;6.80;99.90;;;;;;5033743;28;20013;-77
2024/03/02 04:16:39;;;;;;;0.70;0.00;;;6.80;99.90;;;;;;5033502;28;20053;-76
2024/03/02 04:19:05;;;;;;;0.00;0.00;;;6.90;99.90;;;;;;5034865;28;20505;-76
2024/03/02 04:21:31;;;;;;;0.00;0.00;;;6.90;99.90;;;;;;5035325;28;20025;-75
2024/03/02 04:23:58;;;;;;;0.15;0.00;;;6.90;99.90;;;;;;5033869;28;20021;-76
2024/03/02 04:26:25;;;;;;;0.00;0.00;;;6.90;99.90;;;;;;5033713;28;20075;-76
2024/03/02 04:28:54;;;;;;;0.52;0.00;;;6.90;99.90;;;;;;5033211;28;20485;-76
2024/03/02 04:31:20;;;;;;;0.00;0.00;;;6.90;99.90;;;;;;5035123;28;20072;-76
2024/03/02 04:33:46;;;;;;;0.10;0.00;;;6.90;99.90;;;;;;5034446;28;20029;-77
2024/03/02 04:36:11;;;;;;;0.00;0.00;;;6.80;99.90;;;;;;5034273;28;20476;-76
2024/03/02 04:38:38;;;;;;;0.63;0.00;;;6.80;99.90;;;;;;5034265;28;20148;-77
2024/03/02 04:41:07;;;;;;;1.27;0.00;;;6.80;99.90;;;;;;5034321;28;20022;-76
2024/03/02 04:43:33;;;;;;;;;;;6.70;99.90;;;;;;5034581;28;20036;-77
2024/03/02 04:45:59;;;;;;;0.15;0.00;;;6.70;99.90;;;;;;5034105;28;19905;-75
2024/03/02 04:48:26;;;;;;;0.13;0.00;;;6.90;99.90;;;;;;5034876;28;20485;-76
2024/03/02 04:50:51;;;;;;;0.10;0.00;;;6.60;99.90;;;;;;5034877;28;20029;-76
2024/03/02 04:53:17;;;;;;;0.00;0.00;;;6.60;99.90;;;;;;5034923;28;20142;-77
2024/03/02 04:58:09;;;;;;;0.00;0.00;;;6.50;99.90;;;;;;5034649;28;20033;-76
2024/03/02 05:00:35;;;;;;;1.13;0.00;;;6.40;99.90;;;;;;5034919;28;20104;-76
2024/03/02 05:03:01;;;;;;;0.55;0.03;;;;;;;;;;5034343;28;20041;-76
2024/03/02 05:05:28;;;;;;;2.17;0.00;;;6.30;99.90;;;;;;5034102;28;20055;-75
2024/03/02 05:07:57;;;;;;;0.30;0.15;;;6.20;99.90;;;;;;5034495;28;20034;-77
2024/03/02 05:10:24;;;;;;;0.00;0.00;;;;;;;;;;5034498;28;20052;-76
2024/03/02 05:12:56;;;;;;;0.95;0.28;;;6.30;99.90;;;;;;5034722;28;20022;-77
2024/03/02 05:15:22;;;;;;;2.53;0.00;;;6.20;99.90;;;;;;5032966;28;20045;-76
2024/03/02 05:17:47;;;;;;;0.00;0.00;;;6.10;99.90;;;;;;5032725;28;20037;-77
2024/03/02 05:20:16;;;;;;;0.40;0.00;;;6.10;99.90;;;;;;5033830;28;20029;-76
2024/03/02 05:22:42;;;;;;;;;;;6.10;99.90;;;;;;5033169;28;20028;-76
2024/03/02 05:25:11;;;;;;;0.68;0.00;;;6.00;99.90;;;;;;5032699;28;20293;-76
2024/03/02 05:27:37;;;;;;;0.08;0.00;;;6.00;99.90;;;;;;5033692;28;20027;-77
2024/03/02 05:30:03;;;;;;;0.35;0.00;;;6.00;99.90;;;;;;5038114;28;20104;-76
2024/03/02 05:32:30;;;;;;;1.35;0.00;;;6.00;99.90;;;;;;5037844;28;20056;-77
2024/03/02 05:34:56;;;;;;;3.60;0.00;;;5.90;99.90;;;;;;5038561;28;20026;-76
2024/03/02 05:37:21;;;;;;;0.00;0.00;;;6.00;99.90;;;;;;5038006;28;20021;-77
2024/03/02 05:39:47;;;;;;;0.35;0.30;;;6.00;99.90;;;;;;5036952;28;20037;-77
2024/03/02 05:42:14;;;;;;;0.00;0.00;;;6.00;99.90;;;;;;5037215;28;20503;-77
2024/03/02 05:44:40;;;;;;;0.10;0.10;;;;;;;;;;5036700;28;20029;-75
2024/03/02 05:47:08;;;;;;;0.35;0.00;;;6.00;99.90;;;;;;5038502;28;20026;-77
2024/03/02 05:49:34;;;;;;;3.15;0.00;;;6.00;99.90;;;;;;5037776;28;20025;-75
2024/03/02 05:52:00;;;;;;;0.00;0.00;;;5.90;99.90;;;;;;5038107;28;20397;-75
2024/03/02 05:54:26;;;;;;;0.35;0.00;;;6.00;99.90;;;;;;5036977;28;20026;-76
2024/03/02 05:56:52;;;;;;;2.17;0.00;;;6.00;99.90;;;;;;5036786;28;20107;-76
2024/03/02 05:59:17;;;;;;;2.03;0.00;;;6.00;99.90;;;;;;5036288;28;20053;-75
2024/03/02 06:01:47;;;;;;;0.08;0.00;;;6.10;99.90;;;;;;5037912;28;20041;-76
2024/03/02 06:04:14;;;;;;;0.25;0.15;;;6.20;99.90;;;;;;5036786;28;20033;-75
2024/03/02 06:06:40;;;;;;;0.75;0.00;;;6.20;99.90;;;;;;5036289;28;20028;-77
2024/03/02 06:09:12;;;;;;;2.50;0.00;;;6.20;99.90;;;;;;5038426;28;20029;-79
2024/03/02 06:11:39;;;;;;;2.53;0.00;;;6.20;99.90;;;;;;5043684;28;20527;-79
2024/03/02 06:14:06;;;;;;;0.00;0.00;;;6.30;99.90;;;;;;5044026;28;20048;-78
2024/03/02 06:16:32;;;;;;;0.95;0.00;;;6.30;99.90;;;;;;5044719;28;20018;-79
2024/03/02 06:18:58;;;;;;;0.10;0.00;;;6.30;99.90;;;;;;5043594;28;20021;-78
2024/03/02 06:21:24;;;;;;;0.05;0.00;;;6.40;99.90;;;;;;5038986;28;20030;-79
2024/03/02 06:23:50;;;;;;;1.55;0.00;;;6.40;99.90;;;;;;5044235;28;20013;-79
2024/03/02 06:26:16;;;;;;;2.22;0.22;;;6.40;99.90;;;;;;5041728;28;20031;-79
2024/03/02 06:28:42;;;;;;;1.95;0.00;;;6.40;99.90;;;;;;5042346;28;20127;-79
2024/03/02 06:31:08;;;;;;;1.38;0.00;;;6.40;99.90;;;;;;5039238;28;20036;-78
2024/03/02 06:33:34;;;;;;;1.95;0.00;;;6.40;99.90;;;;;;5044307;28;20077;-78
2024/03/02 06:35:59;;;;;;;5.28;0.32;;;6.50;99.90;;;;;;5040918;28;20028;-79
2024/03/02 06:38:26;;;;;;;0.93;0.00;;;6.50;99.90;;;;;;5040912;28;20089;-78
2024/03/02 06:40:52;;;;;;;0.22;0.00;;;6.50;99.90;;;;;;5040511;28;20030;-78
2024/03/02 06:43:17;;;;;;;0.00;0.00;;;6.50;99.90;;;;;;5041667;28;20033;-79
2024/03/02 06:45:43;;;;;;;0.82;0.17;;;6.50;99.90;;;;;;5041286;28;20040;-78
2024/03/02 06:48:08;;;;;;;1.77;0.00;;;6.50;99.90;;;;;;5039711;28;20049;-78
2024/03/02 06:50:34;;;;;;;2.08;0.00;;;6.50;99.90;;;;;;5038254;28;20029;-79
2024/03/02 06:53:00;;;;;;;1.35;0.20;;;6.50;99.90;;;;;;5040927;28;20025;-78
2024/03/02 06:55:26;;;;;;;0.00;0.00;;;6.50;99.90;;;;;;5038519;28;20441;-79
2024/03/02 06:57:52;;;;;;;0.00;0.00;;;6.40;99.90;;;;;;5040007;28;20021;-79
2024/03/02 07:00:20;;;;;;;2.03;0.00;;;6.40;99.90;;;;;;5041930;28;20032;-79
2024/03/02 07:02:46;;;;;;;0.40;0.20;;;6.40;99.90;;;;;;5042140;28;20030;-79
2024/03/02 07:05:12;;;;;;;1.55;0.05;;;6.40;99.90;;;;;;5043439;28;20029;-79
2024/03/02 07:07:38;;;;;;;0.15;0.00;;;6.40;99.90;;;;;;5041717;28;20047;-78
2024/03/02 07:10:04;;;;;;;3.90;0.20;;;6.40;99.90;;;;;;5043645;28;20026;-78
2024/03/02 07:12:31;;;;;;;1.15;0.00;;;;;;;;;;5043646;28;20025;-78
2024/03/02 07:17:34;;;;;;;0.52;0.10;;;6.60;99.90;;;;;;5042530;28;20048;-79
2024/03/02 07:19:59;;;;;;;6.07;0.80;;;6.70;99.90;;;;;;5042180;28;20029;-78
2024/03/02 07:22:25;;;;;;;0.00;0.00;;;6.70;99.90;;;;;;5044986;28;20392;-79
2024/03/02 07:24:51;;;;;;;3.03;0.00;;;6.80;99.90;;;;;;5044367;28;20033;-79
2024/03/02 07:27:17;;;;;;;2.08;0.00;;;6.80;99.90;;;;;;5048438;28;20025;-78
2024/03/02 07:29:43;;;;;;;0.80;0.00;;;6.80;99.90;;;;;;5046243;28;20485;-79
2024/03/02 07:32:10;;;;;;;3.30;0.10;;;7.00;99.90;;;;;;5047081;28;20026;-78
2024/03/02 07:34:37;;;;;;;1.50;0.00;;;7.00;99.90;;;;;;5045212;28;20025;-79
2024/03/02 07:37:03;;;;;;;1.10;0.00;;;7.00;99.90;;;;;;5047107;28;20013;-80
2024/03/02 07:39:29;;;;;;;1.67;0.00;;;7.10;99.90;;;;;;5041828;28;20029;-79
2024/03/02 07:41:55;;;;;;;0.68;0.00;;;7.80;99.90;;;;;;5035675;28;20121;-77
2024/03/02 07:44:21;;;;;;;2.53;0.00;;;7.00;99.90;;;;;;5035798;28;20464;-77
2024/03/02 07:46:49;;;;;;;0.80;0.00;;;7.00;99.90;;;;;;5035402;28;20459;-78
2024/03/02 07:49:16;;;;;;;0.55;0.00;;;7.00;99.90;;;;;;5036757;28;20025;-77
2024/03/02 07:51:42;;;;;;;1.17;0.00;;;6.90;99.90;;;;;;5036018;28;20033;-77
2024/03/02 07:54:07;;;;;;;0.80;0.00;;;6.90;99.90;;;;;;5035864;28;20017;-77
2024/03/02 07:56:33;;;;;;;0.85;0.00;;;6.90;99.90;;;;;;5034080;28;20393;-77
2024/03/02 07:59:01;;;;;;;0.45;0.00;;;6.80;99.90;;;;;;5033728;28;20046;-77
2024/03/02 08:01:31;;;;;;;2.30;0.00;;;6.80;99.90;;;;;;5034789;28;20432;-78
2024/03/02 08:03:58;;;;;;;0.98;0.00;;;6.80;99.90;;;;;;5037503;28;20064;-78
2024/03/02 08:06:27;;;;;;;1.98;0.00;;;6.80;99.90;;;;;;5034109;28;20013;-77
2024/03/02 08:09:00;;;;;;;2.40;0.00;;;6.90;99.90;;;;;;5036312;28;20052;-77
2024/03/02 08:11:30;;;;;;;0.43;0.00;;;6.90;99.90;;;;;;5034815;28;20017;-76
2024/03/02 08:13:56;;;;;;;1.27;0.00;;;7.00;99.90;;;;;;5035560;28;20051;-77
2024/03/02 08:16:25;;;;;;;1.17;0.00;;;7.00;99.90;;;;;;5035465;28;20104;-77
2024/03/02 08:18:53;;;;;;;0.20;0.00;;;7.10;99.90;;;;;;5035294;28;20037;-77
2024/03/02 08:21:19;;;;;;;2.30;0.45;;;7.10;99.90;;;;;;5033761;28;20110;-78
2024/03/02 08:23:44;;;;;;;0.90;0.00;;;7.30;99.90;;;;;;5034461;28;20021;-78
2024/03/02 08:26:11;;;;;;;0.93;0.00;;;7.40;99.90;;;;;;5035074;28;20105;-77
2024/03/02 08:28:37;;;;;;;2.22;0.00;;;7.40;99.90;;;;;;5035079;28;20033;-78
2024/03/02 08:31:04;;;;;;;1.27;0.10;;;7.60;99.90;;;;;;5033470;28;20022;-77
2024/03/02 08:33:29;;;;;;;0.47;0.00;;;7.60;99.90;;;;;;5034702;28;20435;-77
2024/03/02 08:35:56;;;;;;;0.32;0.00;;;7.70;99.90;;;;;;5034587;28;20022;-77
2024/03/02 08:38:21;;;;;;;0.28;0.00;;;7.80;99.90;;;;;;5034681;28;20036;-78
2024/03/02 08:40:47;;;;;;;2.55;0.10;;;7.90;99.90;;;;;;5035846;28;20381;-78
2024/03/02 08:43:13;;;;;;;2.00;0.00;;;7.90;99.90;;;;;;5033687;28;20370;-79
2024/03/02 08:45:39;;;;;;;0.98;0.08;;;7.90;99.90;;;;;;5034733;28;20044;-78
2024/03/02 08:48:08;;;;;;;0.52;0.00;;;8.10;99.90;;;;;;5034504;28;20108;-78
2024/03/02 08:50:34;;;;;;;1.35;0.00;;;8.10;99.90;;;;;;5035048;28;20026;-78
2024/03/02 08:52:59;;;;;;;0.60;0.00;;;8.10;99.90;;;;;;5032865;28;20171;-78
2024/03/02 08:55:25;;;;;;;0.00;0.00;;;8.20;99.90;;;;;;5034422;28;20109;-78
2024/03/02 08:57:51;;;;;;;7.25;0.60;;;8.20;99.90;;;;;;5033846;28;20020;-78
2024/03/02 09:00:17;;;;;;;1.45;0.00;;;8.60;99.90;;;;;;5033915;28;20038;-78
2024/03/02 09:02:46;;;;;;;1.30;0.00;;;8.40;99.90;;;;;;5032316;28;20385;-78
2024/03/02 09:05:12;;;;;;;;;;;8.50;99.90;;;;;;5032653;28;20029;-78
2024/03/02 09:07:38;;;;;;;2.42;1.00;;;8.50;99.90;;;;;;5034002;28;19911;-78
2024/03/02 09:10:05;;;;;;;3.40;0.20;;;8.60;99.90;;;;;;5032555;28;20500;-78
2024/03/02 09:12:32;;;;;;;0.68;0.00;;;8.60;99.90;;;;;;5033646;28;20013;-77
2024/03/02 09:14:58;;;;;;;5.72;0.00;;;8.70;99.90;;;;;;5033444;28;20484;-78
2024/03/02 09:17:24;;;;;;;3.10;0.43;;;8.80;99.90;;;;;;5034881;28;20097;-77
2024/03/02 09:19:52;;;;;;;0.52;0.00;;;8.80;99.90;;;;;;5033660;28;20098;-77
2024/03/02 09:22:18;;;;;;;2.28;0.00;;;8.80;99.90;;;;;;5034353;28;20388;-77
2024/03/02 09:24:44;;;;;;;0.73;0.00;;;8.90;99.90;;;;;;5034446;28;20513;-78
2024/03/02 09:27:10;;;;;;;1.98;0.00;;;;;;;;;;5034054;28;20056;-77
2024/03/02 09:29:36;;;;;;;1.80;0.00;;;9.10;99.90;;;;;;5034255;28;20029;-77
2024/03/02 09:32:01;;;;;;;1.23;0.25;;;9.10;99.90;;;;;;5033242;28;20018;-79
2024/03/02 09:34:27;;;;;;;3.75;0.43;;;9.10;99.90;;;;;;5033795;28;20064;-77
2024/03/02 09:36:53;;;;;;;3.83;0.15;;;9.20;99.90;;;;;;5033930;28;20026;-77
2024/03/02 09:39:18;;;;;;;6.35;0.22;;;9.30;99.90;;;;;;5034337;28;20029;-78
2024/03/02 09:41:44;;;;;;;3.28;0.13;;;9.30;99.90;;;;;;5033917;28;20022;-77
2024/03/02 09:44:10;;;;;;;0.00;0.00;;;10.50;99.90;;;;;;5033535;28;20121;-78
2024/03/02 09:46:36;;;;;;;5.60;0.00;;;9.40;99.90;;;;;;5035374;28;20037;-79
2024/03/02 09:49:02;;;;;;;2.75;0.00;;;9.50;99.90;;;;;;5032631;28;20029;-78
2024/03/02 09:51:28;;;;;;;2.70;0.00;;;9.50;99.90;;;;;;5033528;28;20025;-79
2024/03/02 09:53:55;;;;;;;0.65;0.10;;;9.60;99.90;;;;;;5032931;28;20017;-77
2024/03/02 09:56:21;;;;;;;2.15;0.00;;;9.60;99.90;;;;;;5033530;28;20032;-76
2024/03/02 09:58:47;;;;;;;1.10;0.00;;;9.80;99.90;;;;;;5033065;28;20429;-76
2024/03/02 10:01:13;;;;;;;1.70;0.00;;;9.90;99.90;;;;;;5032958;28;20116;-76
2024/03/02 10:03:39;;;;;;;1.48;0.00;;;9.90;99.90;;;;;;5032893;28;20057;-76
2024/03/02 10:06:27;;;;;;;5.03;0.20;;;10.00;99.90;;;;;;5031600;28;20038;-76
2024/03/02 10:08:57;;;;;;;4.28;0.00;;;10.10;99.90;;;;;;5032912;28;20036;-76
2024/03/02 10:11:31;;;;;;;0.82;0.20;;;10.20;99.90;;;;;;5032954;28;20489;-76
2024/03/02 10:14:12;;;;;;;2.72;0.10;;;10.30;99.90;;;;;;5033414;28;20025;-78
2024/03/02 10:16:40;;;;;;;6.07;0.10;;;10.30;99.90;;;;;;5035656;28;20025;-76
2024/03/02 10:19:23;;;;;;;3.03;0.00;;;10.40;99.90;;;;;;5037036;28;20067;-76
2024/03/02 10:21:58;;;;;;;2.35;0.00;;;10.40;99.90;;;;;;5036221;28;20021;-78
2024/03/02 10:24:24;;;;;;;9.30;0.30;;;10.40;99.90;;;;;;5037204;28;20100;-78
2024/03/02 10:26:50;;;;;;;0.75;0.00;;;10.40;99.90;;;;;;5035578;28;20021;-76
2024/03/02 10:29:16;;;;;;;3.20;0.00;;;10.50;99.90;;;;;;5035010;28;20029;-76
2024/03/02 10:31:43;;;;;;;3.42;0.38;;;10.60;99.90;;;;;;5036392;28;20052;-76
2024/03/02 10:34:10;;;;;;;5.07;0.30;;;10.70;99.90;;;;;;5035227;28;20014;-77
2024/03/02 10:36:37;;;;;;;3.42;0.00;;;10.80;99.90;;;;;;5035081;28;20032;-76
2024/03/02 10:39:04;;;;;;;1.70;0.00;;;10.90;99.90;;;;;;5036165;28;20025;-77
2024/03/02 10:41:34;;;;;;;1.65;0.00;;;10.90;99.90;;;;;;5036172;28;20480;-76
2024/03/02 10:43:59;;;;;;;7.15;0.55;;;11.00;99.90;;;;;;5041014;28;20049;-79
2024/03/02 10:46:30;;;;;;;2.85;0.08;;;11.00;99.90;;;;;;5042058;28;20021;-80
2024/03/02 10:49:00;;;;;;;4.15;0.00;;;11.00;99.90;;;;;;5042500;28;20536;-79
2024/03/02 10:51:27;;;;;;;1.35;0.10;;;11.20;99.90;;;;;;5041238;28;20022;-80
2024/03/02 10:53:53;;;;;;;1.25;0.00;;;11.20;99.90;;;;;;5042578;28;20018;-79
2024/03/02 10:56:29;;;;;;;1.80;0.00;;;11.20;99.90;;;;;;5042823;28;20044;-80
2024/03/02 10:59:12;;;;;;;1.13;0.00;;;11.20;99.90;;;;;;5041238;28;20469;-79
2024/03/02 11:01:39;;;;;;;1.38;0.28;;;11.20;99.90;;;;;;5042747;28;20047;-80
2024/03/02 11:04:08;;;;;;;4.38;0.45;;;11.30;99.90;;;;;;5042764;28;20057;-80
2024/03/02 11:06:38;;;;;;;2.00;0.60;;;11.30;99.90;;;;;;5041254;28;20036;-80
2024/03/02 11:09:09;;;;;;;1.42;0.30;;;11.40;99.90;;;;;;5041151;28;20022;-80
2024/03/02 11:11:41;;;;;;;2.35;0.00;;;11.40;99.90;;;;;;5042522;28;20018;-80
2024/03/02 11:14:11;;;;;;;0.98;0.25;;;11.40;99.90;;;;;;5042869;28;20056;-80
2024/03/02 11:16:39;;;;;;;0.77;0.00;;;11.50;99.90;;;;;;5043087;28;20036;-80
2024/03/02 11:19:12;;;;;;;1.23;0.10;;;11.60;99.90;;;;;;5041917;28;20052;-80
2024/03/02 11:21:40;;;;;;;0.52;0.00;;;11.70;99.90;;;;;;5043065;28;20295;-79
2024/03/02 11:24:24;;;;;;;3.90;0.00;;;11.70;99.90;;;;;;5041810;28;20515;-80
2024/03/02 11:26:53;;;;;;;0.80;0.00;;;11.90;99.90;;;;;;5040782;28;20061;-80
2024/03/02 11:29:37;;;;;;;;;;;12.00;99.90;;;;;;5036007;28;20022;-78
2024/03/02 11:32:06;;;;;;;0.15;0.00;;;12.00;99.90;;;;;;5036162;28;20383;-78
2024/03/02 11:34:36;;;;;;;1.52;0.22;;;12.20;99.90;;;;;;5034623;28;20029;-77
2024/03/02 11:37:02;;;;;;;1.13;0.00;;;12.30;99.90;;;;;;5035761;28;20097;-78
2024/03/02 11:39:28;;;;;;;0.70;0.00;;;12.40;99.90;;;;;;5035334;28;20029;-78
2024/03/02 11:41:58;;;;;;;0.35;0.05;;;12.50;99.90;;;;;;5034175;28;20026;-78
2024/03/02 11:44:27;;;;;;;1.20;0.00;;;12.50;99.90;;;;;;5034455;28;20400;-78
2024/03/02 11:47:00;;;;;;;0.73;0.00;;;12.50;99.90;;;;;;5034255;28;20026;-76
2024/03/02 11:49:42;;;;;;;2.33;0.00;;;12.50;99.90;;;;;;5033482;28;20071;-76
2024/03/02 11:52:10;;;;;;;4.10;0.38;;;12.60;99.90;;;;;;5036013;28;20028;-76
2024/03/02 11:54:39;;;;;;;3.97;0.00;;;12.70;99.90;;;;;;5035048;28;20025;-76
2024/03/02 11:57:08;;;;;;;0.82;0.13;;;12.70;99.90;;;;;;5033913;28;20049;-77
2024/03/02 11:59:34;;;;;;;2.38;0.00;;;12.80;99.90;;;;;;5034679;28;20018;-77
2024/03/02 12:02:00;;;;;;;0.80;0.10;;;12.80;99.90;;;;;;5033359;28;20535;-76
2024/03/02 12:04:26;;;;;;;1.48;0.20;;;12.60;99.90;;;;;;5033544;28;20030;-76
2024/03/02 12:07:00;;;;;;;1.10;0.00;;;12.50;99.90;;;;;;5034648;28;20021;-76
2024/03/02 12:09:29;;;;;;;2.60;0.20;;;12.40;99.90;;;;;;5033345;28;20025;-76
2024/03/02 12:12:05;;;;;;;2.95;0.05;;;12.40;99.90;;;;;;5033375;28;20024;-76
2024/03/02 12:14:32;;;;;;;1.00;0.00;;;12.50;99.90;;;;;;5033337;28;20018;-76
2024/03/02 12:16:58;;;;;;;1.23;0.00;;;12.70;99.90;;;;;;5035028;28;20045;-76
2024/03/02 12:19:26;;;;;;;0.73;0.00;;;12.80;99.90;;;;;;5034242;28;20029;-76
2024/03/02 12:21:52;;;;;;;0.85;0.00;;;12.90;99.90;;;;;;5032980;28;20036;-77
2024/03/02 12:24:18;;;;;;;0.73;0.00;;;12.90;99.90;;;;;;5033109;28;20028;-77
2024/03/02 12:26:44;;;;;;;1.20;0.00;;;13.10;99.90;;;;;;5032910;28;20477;-77
2024/03/02 12:29:10;;;;;;;1.10;0.00;;;13.30;99.90;;;;;;5032745;28;20025;-76
2024/03/02 12:31:36;;;;;;;0.70;0.00;;;13.50;99.90;;;;;;5033020;28;20405;-76
2024/03/02 12:34:04;;;;;;;1.55;0.10;;;13.70;99.90;;;;;;5034203;28;20021;-76
2024/03/02 12:36:29;;;;;;;2.63;0.35;;;13.80;99.90;;;;;;5032668;28;20013;-76
2024/03/02 12:38:55;;;;;;;2.30;0.00;;;14.00;99.90;;;;;;5033723;28;20017;-77
2024/03/02 12:41:21;;;;;;;2.28;0.08;;;14.10;99.90;;;;;;5032646;28;20033;-76
2024/03/02 12:43:47;;;;;;;0.20;0.00;;;14.20;99.90;;;;;;5033973;28;20436;-77
2024/03/02 12:46:14;;;;;;;2.60;0.00;;;14.20;99.60;;;;;;5032529;28;20026;-76
2024/03/02 12:48:40;;;;;;;4.35;0.13;;;;;;;;;;5032472;28;20533;-76
2024/03/02 12:51:06;;;;;;;2.05;0.00;;;14.30;99.90;;;;;;5033583;28;20026;-76
2024/03/02 12:53:32;;;;;;;1.80;0.00;;;14.20;99.90;;;;;;5033864;28;20526;-76
2024/03/02 12:55:58;;;;;;;2.05;0.03;;;14.30;99.90;;;;;;5032622;28;20108;-76
2024/03/02 12:58:24;;;;;;;1.77;0.00;;;14.60;99.90;;;;;;5033699;28;20539;-76
2024/03/02 13:00:50;;;;;;;1.98;0.28;;;14.70;99.30;;;;;;5032386;28;20022;-77
2024/03/02 13:03:19;;;;;;;3.25;0.10;;;14.80;98.70;;;;;;5032320;28;20037;-77